createdAt,value
2022-11-28T00:01:41.541Z,10.46
2022-11-28T00:04:08.582Z,10.24
2022-11-28T00:06:41.730Z,10.41
2022-11-28T00:09:08.896Z,10.40
2022-11-28T00:11:35.784Z,10.43
2022-11-28T00:14:02.698Z,10.48
2022-11-28T00:16:29.779Z,10.45
2022-11-28T00:18:56.644Z,10.43
2022-11-28T00:21:23.923Z,10.39
2022-11-28T00:23:50.826Z,10.37
2022-11-28T00:26:26.813Z,10.35
2022-11-28T00:28:54.953Z,10.35
2022-11-28T00:31:25.173Z,10.30
2022-11-28T00:33:52.059Z,9.90
2022-11-28T00:36:19.808Z,10.11
2022-11-28T00:38:47.014Z,10.16
2022-11-28T00:41:16.433Z,10.17
2022-11-28T00:43:44.760Z,10.18
2022-11-28T00:46:12.925Z,10.11
2022-11-28T00:48:40.378Z,10.15
2022-11-28T00:51:08.228Z,10.16
2022-11-28T00:53:35.728Z,10.17
2022-11-28T00:56:06.090Z,10.15
2022-11-28T00:58:34.634Z,10.12
2022-11-28T01:01:23.946Z,10.09
2022-11-28T01:03:52.618Z,10.13
2022-11-28T01:06:22.322Z,10.14
2022-11-28T01:08:51.535Z,10.12
2022-11-28T01:11:19.142Z,10.13
2022-11-28T01:13:45.967Z,10.06
2022-11-28T01:16:13.078Z,9.97
2022-11-28T01:18:39.927Z,10.08
2022-11-28T01:21:08.031Z,10.14
2022-11-28T01:23:35.400Z,10.13
2022-11-28T01:26:02.517Z,10.15
2022-11-28T01:28:29.715Z,10.24
2022-11-28T01:30:56.702Z,10.24
2022-11-28T01:33:23.538Z,10.23
2022-11-28T01:35:58.547Z,10.17
2022-11-28T01:38:26.006Z,10.17
2022-11-28T01:40:53.739Z,10.15
2022-11-28T01:43:20.741Z,10.12
2022-11-28T01:45:47.586Z,10.12
2022-11-28T01:48:18.322Z,10.15
2022-11-28T01:50:48.080Z,10.23
2022-11-28T01:53:15.110Z,10.21
2022-11-28T01:55:55.971Z,10.17
2022-11-28T01:58:23.400Z,10.23
2022-11-28T02:00:50.247Z,10.21
2022-11-28T02:03:31.068Z,10.18
2022-11-28T02:05:58.360Z,10.27
2022-11-28T02:08:25.630Z,10.21
2022-11-28T02:11:07.645Z,10.16
2022-11-28T02:13:40.381Z,10.17
2022-11-28T02:16:11.625Z,10.14
2022-11-28T02:19:16.623Z,10.08
2022-11-28T02:22:01.257Z,10.16
2022-11-28T02:24:33.602Z,10.18
2022-11-28T02:27:19.926Z,10.11
2022-11-28T02:29:58.684Z,10.21
2022-11-28T02:32:37.049Z,10.25
2022-11-28T02:35:15.542Z,10.20
2022-11-28T02:37:50.963Z,10.16
2022-11-28T02:40:36.852Z,10.08
2022-11-28T02:43:41.904Z,9.98
2022-11-28T02:46:28.325Z,9.78
2022-11-28T02:49:13.405Z,9.66
2022-11-28T02:51:52.184Z,9.63
2022-11-28T02:54:22.047Z,9.57
2022-11-28T02:56:50.525Z,9.58
2022-11-28T02:59:43.270Z,9.47
2022-11-28T03:02:24.131Z,9.49
2022-11-28T03:05:07.857Z,9.57
2022-11-28T03:07:46.555Z,9.60
2022-11-28T03:10:35.939Z,9.63
2022-11-28T03:13:13.315Z,9.77
2022-11-28T03:16:25.680Z,9.79
2022-11-28T03:18:58.040Z,9.88
2022-11-28T03:21:52.614Z,9.81
2022-11-28T03:24:25.920Z,9.76
2022-11-28T03:26:57.774Z,9.71
2022-11-28T03:29:39.703Z,9.62
2022-11-28T03:32:12.130Z,9.64
2022-11-28T03:34:44.781Z,9.63
2022-11-28T03:37:18.292Z,9.64
2022-11-28T03:39:51.717Z,9.54
2022-11-28T03:42:24.872Z,9.47
2022-11-28T03:45:23.474Z,9.24
2022-11-28T03:47:58.332Z,9.07
2022-11-28T03:50:36.538Z,8.93
2022-11-28T03:53:08.763Z,8.81
2022-11-28T03:55:41.687Z,8.84
2022-11-28T03:58:31.741Z,8.80
2022-11-28T04:01:29.593Z,8.75
2022-11-28T04:04:16.407Z,8.90
2022-11-28T04:07:03.658Z,8.80
2022-11-28T04:09:39.882Z,9.04
2022-11-28T04:12:35.373Z,8.89
2022-11-28T04:15:10.237Z,8.95
2022-11-28T04:17:47.599Z,8.88
2022-11-28T04:20:39.464Z,8.90
2022-11-28T04:23:18.515Z,8.83
2022-11-28T04:25:52.889Z,8.74
2022-11-28T04:28:25.031Z,8.62
2022-11-28T04:30:53.844Z,8.49
2022-11-28T04:33:24.212Z,8.42
2022-11-28T04:35:53.269Z,8.32
2022-11-28T04:38:24.183Z,8.16
2022-11-28T04:41:06.981Z,8.08
2022-11-28T04:43:42.338Z,7.98
2022-11-28T04:46:21.882Z,7.92
2022-11-28T04:48:48.729Z,7.83
2022-11-28T04:51:21.292Z,7.93
2022-11-28T04:54:00.152Z,7.93
2022-11-28T04:56:57.652Z,7.95
2022-11-28T04:59:27.213Z,8.15
2022-11-28T05:01:56.209Z,8.21
2022-11-28T05:04:22.941Z,8.22
2022-11-28T05:06:49.842Z,8.20
2022-11-28T05:09:16.818Z,8.10
2022-11-28T05:11:43.543Z,8.11
2022-11-28T05:14:10.311Z,8.06
2022-11-28T05:16:37.029Z,8.11
2022-11-28T05:19:03.863Z,8.13
2022-11-28T05:21:30.658Z,8.16
2022-11-28T05:23:57.449Z,8.20
2022-11-28T05:26:24.247Z,8.27
2022-11-28T05:28:53.316Z,8.33
2022-11-28T05:31:21.526Z,8.49
2022-11-28T05:33:48.342Z,8.51
2022-11-28T05:36:15.974Z,8.49
2022-11-28T05:38:43.873Z,8.49
2022-11-28T05:41:18.083Z,8.44
2022-11-28T05:43:44.752Z,8.34
2022-11-28T05:46:11.555Z,8.30
2022-11-28T05:48:38.476Z,8.26
2022-11-28T05:51:05.751Z,8.16
2022-11-28T05:53:32.741Z,8.07
2022-11-28T05:55:59.948Z,8.07
2022-11-28T05:58:26.652Z,7.96
2022-11-28T06:00:55.796Z,8.04
2022-11-28T06:03:22.856Z,8.04
2022-11-28T06:05:49.656Z,8.01
2022-11-28T06:08:16.743Z,8.10
2022-11-28T06:10:43.589Z,8.12
2022-11-28T06:13:10.298Z,8.12
2022-11-28T06:15:38.548Z,8.06
2022-11-28T06:18:06.505Z,7.86
2022-11-28T06:20:35.872Z,7.89
2022-11-28T06:23:02.571Z,7.92
2022-11-28T06:25:29.811Z,7.96
2022-11-28T06:27:56.584Z,7.94
2022-11-28T06:30:23.286Z,7.87
2022-11-28T06:32:50.033Z,7.87
2022-11-28T06:35:17.020Z,8.00
2022-11-28T06:37:43.757Z,8.08
2022-11-28T06:40:10.727Z,8.08
2022-11-28T06:42:37.573Z,8.15
2022-11-28T06:45:05.836Z,8.25
2022-11-28T06:47:32.811Z,8.21
2022-11-28T06:49:59.504Z,8.32
2022-11-28T06:52:26.615Z,8.28
2022-11-28T06:54:53.424Z,8.21
2022-11-28T06:57:20.164Z,8.21
2022-11-28T06:59:48.791Z,8.15
2022-11-28T07:02:15.674Z,7.98
2022-11-28T07:04:42.391Z,7.96
2022-11-28T07:07:12.518Z,7.87
2022-11-28T07:09:42.002Z,7.83
2022-11-28T07:12:09.088Z,7.75
2022-11-28T07:14:36.861Z,7.77
2022-11-28T07:17:03.729Z,7.83
2022-11-28T07:19:30.504Z,7.89
2022-11-28T07:21:57.333Z,7.97
2022-11-28T07:24:24.207Z,8.14
2022-11-28T07:26:50.915Z,8.36
2022-11-28T07:29:18.864Z,8.48
2022-11-28T07:31:45.802Z,8.61
2022-11-28T07:34:13.122Z,8.80
2022-11-28T07:36:40.004Z,8.83
2022-11-28T07:39:09.054Z,8.81
2022-11-28T07:41:36.079Z,8.75
2022-11-28T07:44:04.489Z,8.67
2022-11-28T07:46:32.334Z,8.57
2022-11-28T07:48:59.297Z,8.51
2022-11-28T07:51:28.830Z,8.46
2022-11-28T07:53:58.772Z,8.41
2022-11-28T07:56:39.489Z,8.38
2022-11-28T07:59:11.525Z,8.24
2022-11-28T08:01:38.611Z,8.37
2022-11-28T08:04:07.464Z,8.37
2022-11-28T08:06:38.281Z,8.46
2022-11-28T08:09:07.104Z,8.48
2022-11-28T08:11:34.601Z,8.53
2022-11-28T08:14:01.966Z,8.56
2022-11-28T08:16:30.409Z,8.81
2022-11-28T08:18:59.760Z,8.95
2022-11-28T08:21:29.903Z,9.14
2022-11-28T08:23:59.633Z,9.31
2022-11-28T08:26:30.379Z,9.49
2022-11-28T08:28:58.675Z,9.66
2022-11-28T08:31:28.919Z,9.86
2022-11-28T08:33:56.796Z,9.73
2022-11-28T08:36:23.880Z,9.99
2022-11-28T08:39:09.483Z,10.01
2022-11-28T08:41:37.933Z,9.65
2022-11-28T08:44:04.826Z,9.62
2022-11-28T08:46:31.571Z,9.57
2022-11-28T08:49:04.186Z,9.56
2022-11-28T08:51:31.722Z,9.46
2022-11-28T08:53:59.810Z,9.45
2022-11-28T08:56:27.477Z,9.43
2022-11-28T08:58:55.082Z,9.43
2022-11-28T09:01:24.996Z,9.45
2022-11-28T09:03:53.177Z,9.73
2022-11-28T09:06:21.200Z,10.33
2022-11-28T09:08:49.224Z,11.06
2022-11-28T09:11:18.159Z,11.55
2022-11-28T09:13:45.724Z,12.36
2022-11-28T09:16:13.085Z,13.32
2022-11-28T09:18:39.959Z,14.26
2022-11-28T09:21:13.120Z,15.02
2022-11-28T09:23:41.473Z,15.79
2022-11-28T09:26:15.301Z,16.37
2022-11-28T09:28:42.511Z,16.78
2022-11-28T09:31:10.127Z,17.03
2022-11-28T09:33:37.220Z,16.88
2022-11-28T09:36:09.538Z,16.10
2022-11-28T09:38:37.225Z,15.28
2022-11-28T09:41:23.468Z,15.10
2022-11-28T09:43:54.704Z,15.80
2022-11-28T09:46:31.495Z,16.30
2022-11-28T09:49:02.308Z,17.00
2022-11-28T09:51:33.489Z,17.40
2022-11-28T09:54:27.795Z,17.99
2022-11-28T09:56:56.917Z,18.64
2022-11-28T09:59:27.583Z,19.18
2022-11-28T10:02:10.369Z,19.28
2022-11-28T10:05:12.509Z,19.22
2022-11-28T10:07:49.032Z,18.96
2022-11-28T10:10:21.678Z,18.89
2022-11-28T10:13:13.989Z,18.55
2022-11-28T10:15:59.538Z,18.55
2022-11-28T10:18:42.556Z,18.33
2022-11-28T10:21:28.205Z,18.65
2022-11-28T10:24:00.261Z,19.06
2022-11-28T10:26:36.001Z,18.45
2022-11-28T10:29:41.604Z,16.78
2022-11-28T10:32:18.095Z,15.84
2022-11-28T10:35:00.810Z,15.15
2022-11-28T10:37:31.392Z,14.98
2022-11-28T10:40:50.509Z,14.32
2022-11-28T10:43:59.613Z,14.27
2022-11-28T10:47:00.640Z,14.15
2022-11-28T10:49:33.843Z,13.87
2022-11-28T10:52:17.514Z,13.60
2022-11-28T10:54:59.420Z,13.56
2022-11-28T10:57:42.905Z,13.47
2022-11-28T11:00:13.759Z,13.44
2022-11-28T11:02:46.359Z,13.38
2022-11-28T11:05:19.815Z,13.44
2022-11-28T11:07:55.498Z,13.51
2022-11-28T11:10:49.751Z,13.60
2022-11-28T11:13:20.879Z,13.66
2022-11-28T11:15:54.750Z,13.88
2022-11-28T11:18:34.735Z,14.00
2022-11-28T11:21:18.067Z,14.03
2022-11-28T11:23:46.101Z,14.02
2022-11-28T11:26:26.325Z,13.92
2022-11-28T11:28:53.517Z,13.91
2022-11-28T11:31:31.073Z,13.88
2022-11-28T11:34:14.665Z,13.92
2022-11-28T11:36:43.036Z,14.21
2022-11-28T11:39:12.809Z,14.46
2022-11-28T11:41:48.275Z,14.67
2022-11-28T11:44:14.959Z,15.20
2022-11-28T11:47:09.178Z,15.76
2022-11-28T11:49:37.475Z,16.24
2022-11-28T11:52:14.203Z,16.59
2022-11-28T11:55:11.684Z,16.99
2022-11-28T11:57:43.740Z,18.86
2022-11-28T12:00:15.256Z,20.81
2022-11-28T12:02:52.384Z,21.60
2022-11-28T12:05:23.332Z,23.32
2022-11-28T12:08:31.873Z,25.61
2022-11-28T12:11:19.643Z,27.35
2022-11-28T12:13:46.954Z,28.41
2022-11-28T12:16:48.680Z,29.13
2022-11-28T12:19:40.185Z,30.26
2022-11-28T12:22:22.053Z,30.85
2022-11-28T12:25:28.171Z,31.34
2022-11-28T12:27:57.539Z,31.86
2022-11-28T12:30:30.146Z,32.20
2022-11-28T12:33:32.343Z,32.32
2022-11-28T12:36:08.386Z,32.32
2022-11-28T12:38:38.247Z,32.17
2022-11-28T12:41:04.971Z,32.35
2022-11-28T12:43:37.422Z,32.65
2022-11-28T12:46:20.364Z,32.92
2022-11-28T12:49:02.039Z,33.06
2022-11-28T12:51:56.653Z,33.15
2022-11-28T12:54:32.524Z,32.96
2022-11-28T12:57:14.638Z,32.65
2022-11-28T13:00:36.956Z,31.17
2022-11-28T13:03:41.768Z,29.51
2022-11-28T13:06:08.494Z,27.23
2022-11-28T13:09:06.770Z,25.10
2022-11-28T13:11:40.152Z,23.12
2022-11-28T13:14:15.645Z,21.85
2022-11-28T13:16:42.566Z,20.88
2022-11-28T13:19:30.590Z,20.09
2022-11-28T13:22:06.467Z,19.55
2022-11-28T13:24:42.454Z,19.27
2022-11-28T13:27:32.481Z,18.73
2022-11-28T13:30:24.003Z,18.10
2022-11-28T13:33:14.466Z,17.83
2022-11-28T13:35:45.532Z,17.80
2022-11-28T13:38:44.126Z,17.49
2022-11-28T13:41:43.885Z,17.29
2022-11-28T13:44:20.886Z,17.23
2022-11-28T13:46:47.921Z,17.26
2022-11-28T13:49:26.697Z,17.10
2022-11-28T13:52:17.921Z,16.93
2022-11-28T13:54:45.910Z,16.91
2022-11-28T13:57:28.203Z,16.68
2022-11-28T14:00:22.663Z,16.50
2022-11-28T14:02:59.121Z,16.27
2022-11-28T14:05:38.417Z,16.09
2022-11-28T14:08:07.382Z,15.99
2022-11-28T14:10:57.960Z,15.87
2022-11-28T14:13:33.754Z,15.88
2022-11-28T14:16:20.906Z,15.87
2022-11-28T14:19:11.809Z,15.99
2022-11-28T14:21:41.546Z,16.10
2022-11-28T14:24:17.576Z,16.02
2022-11-28T14:26:44.917Z,16.18
2022-11-28T14:29:25.213Z,16.17
2022-11-28T14:32:14.148Z,16.18
2022-11-28T14:34:48.822Z,16.25
2022-11-28T14:37:21.862Z,16.35
2022-11-28T14:39:50.261Z,16.50
2022-11-28T14:42:44.149Z,16.55
2022-11-28T14:45:40.334Z,16.42
2022-11-28T14:48:17.363Z,16.39
2022-11-28T14:50:48.363Z,16.43
2022-11-28T14:53:34.180Z,16.31
2022-11-28T14:56:16.124Z,16.20
2022-11-28T14:58:50.437Z,16.03
2022-11-28T15:02:04.630Z,15.73
2022-11-28T15:04:41.658Z,15.70
2022-11-28T15:07:28.835Z,15.51
2022-11-28T15:10:10.196Z,15.49
2022-11-28T15:13:03.441Z,15.41
2022-11-28T15:15:32.161Z,15.39
2022-11-28T15:18:02.097Z,15.34
2022-11-28T15:20:44.232Z,15.37
2022-11-28T15:23:30.569Z,15.36
2022-11-28T15:25:58.906Z,15.39
2022-11-28T15:28:28.730Z,15.46
2022-11-28T15:30:58.066Z,15.45
2022-11-28T15:33:26.934Z,15.37
2022-11-28T15:36:02.522Z,15.32
2022-11-28T15:38:31.704Z,15.17
2022-11-28T15:40:59.632Z,15.11
2022-11-28T15:43:26.774Z,15.00
2022-11-28T15:46:00.343Z,15.00
2022-11-28T15:48:39.792Z,14.85
2022-11-28T15:51:07.630Z,14.70
2022-11-28T15:53:40.894Z,14.65
2022-11-28T15:56:12.828Z,14.57
2022-11-28T15:58:41.271Z,14.45
2022-11-28T16:01:10.965Z,14.32
2022-11-28T16:04:06.153Z,14.00
2022-11-28T16:06:36.371Z,14.07
2022-11-28T16:09:05.914Z,13.57
2022-11-28T16:11:36.237Z,13.75
2022-11-28T16:14:09.803Z,13.73
2022-11-28T16:16:38.457Z,13.70
2022-11-28T16:19:09.074Z,13.51
2022-11-28T16:21:44.136Z,13.62
2022-11-28T16:24:46.901Z,13.50
2022-11-28T16:27:32.790Z,13.52
2022-11-28T16:30:00.886Z,13.55
2022-11-28T16:32:40.884Z,13.58
2022-11-28T16:35:12.593Z,13.56
2022-11-28T16:37:39.720Z,13.58
2022-11-28T16:40:06.876Z,13.59
2022-11-28T16:42:35.211Z,13.59
2022-11-28T16:45:32.872Z,13.42
2022-11-28T16:48:15.203Z,13.46
2022-11-28T16:51:01.893Z,13.38
2022-11-28T16:53:55.687Z,13.30
2022-11-28T16:56:31.615Z,13.33
2022-11-28T16:59:07.468Z,13.31
2022-11-28T17:01:35.435Z,13.30
2022-11-28T17:04:02.750Z,13.21
2022-11-28T17:06:39.355Z,13.21
2022-11-28T17:09:11.832Z,13.14
2022-11-28T17:11:43.988Z,12.98
2022-11-28T17:14:14.354Z,13.03
2022-11-28T17:16:44.209Z,12.98
2022-11-28T17:19:11.091Z,12.91
2022-11-28T17:21:54.480Z,12.89
2022-11-28T17:24:26.938Z,12.81
2022-11-28T17:26:55.112Z,12.81
2022-11-28T17:29:22.691Z,12.77
2022-11-28T17:31:50.399Z,12.78
2022-11-28T17:34:23.316Z,12.74
2022-11-28T17:36:50.803Z,12.71
2022-11-28T17:39:19.146Z,12.70
2022-11-28T17:41:47.245Z,12.68
2022-11-28T17:44:23.766Z,12.62
2022-11-28T17:46:52.230Z,12.63
2022-11-28T17:49:19.499Z,12.60
2022-11-28T17:51:46.263Z,12.62
2022-11-28T17:54:16.848Z,12.60
2022-11-28T17:56:51.703Z,12.55
2022-11-28T17:59:20.683Z,12.58
2022-11-28T18:01:47.857Z,12.54
2022-11-28T18:04:14.770Z,12.63
2022-11-28T18:06:46.312Z,12.61
2022-11-28T18:09:14.072Z,12.65
2022-11-28T18:11:42.556Z,12.64
2022-11-28T18:14:09.873Z,12.67
2022-11-28T18:16:36.937Z,12.65
2022-11-28T18:19:04.731Z,12.72
2022-11-28T18:21:32.395Z,12.78
2022-11-28T18:23:59.159Z,12.76
2022-11-28T18:26:26.883Z,12.80
2022-11-28T18:28:54.207Z,12.82
2022-11-28T18:31:24.795Z,12.86
2022-11-28T18:33:51.668Z,12.78
2022-11-28T18:36:21.859Z,12.82
2022-11-28T18:38:48.810Z,12.42
2022-11-28T18:41:17.695Z,12.64
2022-11-28T18:43:45.094Z,12.63
2022-11-28T18:46:17.724Z,12.62
2022-11-28T18:48:46.668Z,12.60
2022-11-28T18:51:22.344Z,12.51
2022-11-28T18:53:51.287Z,12.44
2022-11-28T18:56:18.564Z,12.38
2022-11-28T18:58:48.722Z,12.41
2022-11-28T19:01:16.564Z,11.99
2022-11-28T19:03:47.877Z,12.24
2022-11-28T19:06:14.793Z,12.25
2022-11-28T19:08:41.663Z,12.27
2022-11-28T19:11:13.308Z,12.25
2022-11-28T19:13:45.481Z,12.20
2022-11-28T19:16:14.104Z,12.18
2022-11-28T19:18:41.569Z,12.13
2022-11-28T19:21:11.340Z,12.06
2022-11-28T19:23:38.735Z,12.06
2022-11-28T19:26:08.432Z,12.04
2022-11-28T19:28:38.111Z,11.98
2022-11-28T19:31:11.251Z,11.94
2022-11-28T19:33:38.795Z,11.92
2022-11-28T19:36:07.505Z,11.90
2022-11-28T19:38:35.751Z,11.80
2022-11-28T19:41:07.323Z,11.74
2022-11-28T19:43:35.387Z,11.72
2022-11-28T19:46:02.572Z,11.76
2022-11-28T19:48:31.323Z,11.77
2022-11-28T19:50:58.372Z,11.81
2022-11-28T19:53:26.222Z,11.87
2022-11-28T19:55:54.330Z,11.80
2022-11-28T19:58:21.576Z,11.83
2022-11-28T20:00:48.495Z,11.79
2022-11-28T20:03:16.426Z,11.70
2022-11-28T20:05:43.417Z,11.72
2022-11-28T20:08:10.205Z,11.63
2022-11-28T20:10:40.170Z,11.65
2022-11-28T20:13:06.913Z,11.60
2022-11-28T20:15:37.873Z,11.57
2022-11-28T20:18:04.866Z,11.55
2022-11-28T20:20:34.053Z,11.43
2022-11-28T20:23:01.801Z,11.48
2022-11-28T20:25:28.927Z,11.41
2022-11-28T20:27:55.667Z,11.39
2022-11-28T20:30:22.413Z,11.29
2022-11-28T20:32:49.186Z,11.32
2022-11-28T20:35:16.158Z,11.28
2022-11-28T20:37:42.929Z,11.25
2022-11-28T20:40:10.256Z,11.19
2022-11-28T20:42:40.027Z,11.12
2022-11-28T20:45:07.553Z,11.17
2022-11-28T20:47:35.160Z,11.15
2022-11-28T20:50:02.455Z,11.24
2022-11-28T20:52:29.167Z,11.19
2022-11-28T20:54:56.123Z,11.26
2022-11-28T20:57:22.856Z,11.31
2022-11-28T20:59:49.652Z,11.24
2022-11-28T21:02:16.511Z,11.30
2022-11-28T21:04:44.403Z,11.27
2022-11-28T21:07:11.103Z,11.32
2022-11-28T21:09:38.156Z,11.27
2022-11-28T21:12:04.955Z,11.21
2022-11-28T21:14:31.659Z,11.24
2022-11-28T21:16:59.280Z,11.27
2022-11-28T21:19:27.115Z,11.35
2022-11-28T21:21:54.429Z,11.43
2022-11-28T21:24:21.284Z,11.50
2022-11-28T21:26:53.559Z,11.49
2022-11-28T21:29:22.245Z,11.44
2022-11-28T21:31:49.096Z,11.47
2022-11-28T21:34:16.980Z,11.49
2022-11-28T21:36:44.481Z,11.49
2022-11-28T21:39:17.215Z,11.43
2022-11-28T21:41:43.951Z,11.37
2022-11-28T21:44:10.978Z,11.29
2022-11-28T21:46:37.804Z,11.29
2022-11-28T21:49:04.522Z,11.17
2022-11-28T21:51:31.443Z,11.13
2022-11-28T21:53:58.262Z,11.13
2022-11-28T21:56:25.917Z,11.10
2022-11-28T21:58:52.846Z,11.03
2022-11-28T22:01:21.418Z,11.03
2022-11-28T22:03:48.369Z,10.98
2022-11-28T22:06:24.263Z,10.91
2022-11-28T22:08:51.714Z,10.87
2022-11-28T22:11:22.248Z,10.84
2022-11-28T22:13:49.716Z,10.80
2022-11-28T22:16:23.485Z,10.72
2022-11-28T22:18:55.380Z,10.66
2022-11-28T22:21:50.600Z,10.57
2022-11-28T22:24:09.715Z,10.49
2022-11-28T22:26:36.710Z,10.41
2022-11-28T22:29:06.957Z,10.40
2022-11-28T22:31:33.566Z,10.17
2022-11-28T22:34:00.555Z,10.34
2022-11-28T22:36:27.394Z,10.32
2022-11-28T22:38:55.911Z,10.30
2022-11-28T22:41:28.226Z,10.31
2022-11-28T22:43:57.173Z,10.24
2022-11-28T22:46:23.949Z,10.17
2022-11-28T22:48:52.997Z,10.11
2022-11-28T22:51:22.710Z,10.03
2022-11-28T22:53:56.345Z,9.86
2022-11-28T22:56:23.452Z,9.78
2022-11-28T22:58:50.439Z,9.74
2022-11-28T23:01:37.475Z,9.57
2022-11-28T23:04:04.523Z,9.49
2022-11-28T23:06:33.906Z,9.51
2022-11-28T23:09:05.504Z,9.40
2022-11-28T23:11:35.283Z,9.49
2022-11-28T23:14:03.041Z,9.48
2022-11-28T23:16:34.391Z,9.50
2022-11-28T23:19:03.753Z,9.47
2022-11-28T23:21:34.189Z,9.39
2022-11-28T23:24:01.513Z,9.45
2022-11-28T23:26:30.768Z,9.48
2022-11-28T23:29:00.713Z,9.45
2022-11-28T23:31:30.011Z,9.46
2022-11-28T23:33:58.099Z,9.31
2022-11-28T23:36:26.485Z,9.55
2022-11-28T23:38:56.219Z,9.58
2022-11-28T23:41:23.875Z,9.58
2022-11-28T23:43:50.681Z,9.61
2022-11-28T23:46:18.655Z,9.67
2022-11-28T23:48:46.148Z,9.68
2022-11-28T23:51:18.352Z,9.76
2022-11-28T23:53:45.412Z,9.73
2022-11-28T23:56:16.017Z,9.70
2022-11-28T23:58:43.074Z,9.65
